Terminal Aerodrome Forecast
Issued by NWS

Home | Current Version | Previous Version | Text Only | Print | Product List | Glossary On
Versions: 1 2 3 4 5 6 7 8 9 10 11 12 13 14 15 16 17 18 19 20 21 22 23 24 25
685
FTUS43 KLOT 141739
TAFORD
TAF
KORD 141739Z 1418/1524 14014G20KT 1SM -SN OVC012
      TEMPO 1418/1420 1/2SM SN BLSN OVC009
     FM142100 15013G19KT 2SM -SN BR OVC010
     FM150200 16011KT 6SM -SN BR OVC008
     FM151200 20007KT P6SM OVC010
     FM151800 23008KT P6SM OVC015=

USA.gov is the U.S. government's official web portal to all federal, state and local government web resources and services.